createdAt,value
2022-09-14T00:01:25.383Z,85.64
2022-09-14T00:06:30.979Z,85.57
2022-09-14T00:11:36.474Z,85.54
2022-09-14T00:16:42.489Z,86.15
2022-09-14T00:21:45.950Z,86.15
2022-09-14T00:26:49.749Z,86.26
2022-09-14T00:31:53.157Z,85.93
2022-09-14T00:36:56.407Z,86.32
2022-09-14T00:41:59.910Z,86.35
2022-09-14T00:47:03.630Z,86.57
2022-09-14T00:52:19.233Z,86.48
2022-09-14T00:57:24.798Z,86.15
2022-09-14T01:02:29.681Z,86.13
2022-09-14T01:08:16.412Z,86.12
2022-09-14T01:13:42.561Z,86.30
2022-09-14T01:18:53.012Z,87.21
2022-09-14T01:24:38.149Z,87.56
2022-09-14T01:30:07.485Z,87.43
2022-09-14T01:35:34.168Z,87.43
2022-09-14T01:40:49.686Z,87.42
2022-09-14T01:46:08.303Z,87.50
2022-09-14T01:51:19.633Z,87.91
2022-09-14T01:56:39.228Z,88.42
2022-09-14T02:01:53.108Z,88.54
2022-09-14T02:06:57.210Z,88.57
2022-09-14T02:12:01.136Z,88.36
2022-09-14T02:17:04.781Z,88.54
2022-09-14T02:22:08.165Z,88.22
2022-09-14T02:27:11.294Z,88.01
2022-09-14T02:32:35.252Z,87.97
2022-09-14T02:38:06.947Z,88.14
2022-09-14T02:43:34.839Z,88.07
2022-09-14T02:48:40.906Z,88.03
2022-09-14T02:54:09.309Z,88.18
2022-09-14T02:59:12.408Z,88.03
2022-09-14T03:04:15.849Z,88.14
2022-09-14T03:09:19.242Z,88.15
2022-09-14T03:14:22.347Z,88.46
2022-09-14T03:19:25.453Z,88.21
2022-09-14T03:24:28.557Z,88.27
2022-09-14T03:29:31.696Z,88.54
2022-09-14T03:34:34.874Z,88.61
2022-09-14T03:39:37.978Z,88.80
2022-09-14T03:44:41.085Z,89.03
2022-09-14T03:49:44.191Z,88.82
2022-09-14T03:54:47.323Z,88.85
2022-09-14T03:59:50.821Z,88.75
2022-09-14T04:04:54.026Z,89.18
2022-09-14T04:09:57.175Z,89.33
2022-09-14T04:15:00.234Z,89.60
2022-09-14T04:20:04.629Z,89.50
2022-09-14T04:25:08.606Z,89.50
2022-09-14T04:30:13.043Z,89.31
2022-09-14T04:35:16.141Z,89.22
2022-09-14T04:40:19.328Z,89.60
2022-09-14T04:45:22.555Z,89.81
2022-09-14T04:50:25.667Z,89.89
2022-09-14T04:55:28.776Z,89.83
2022-09-14T05:00:36.252Z,89.62
2022-09-14T05:05:44.317Z,89.57
2022-09-14T05:10:48.237Z,89.52
2022-09-14T05:15:52.016Z,89.47
2022-09-14T05:20:55.080Z,89.39
2022-09-14T05:25:59.186Z,89.25
2022-09-14T05:31:13.250Z,89.19
2022-09-14T05:36:17.605Z,88.96
2022-09-14T05:41:20.996Z,88.80
2022-09-14T05:46:24.245Z,88.44
2022-09-14T05:51:28.823Z,88.27
2022-09-14T05:56:32.156Z,88.00
2022-09-14T06:01:35.511Z,87.76
2022-09-14T06:06:38.881Z,87.81
2022-09-14T06:11:42.799Z,87.65
2022-09-14T06:16:46.935Z,87.22
2022-09-14T06:21:50.035Z,86.77
2022-09-14T06:26:53.243Z,86.35
2022-09-14T06:31:56.351Z,85.82
2022-09-14T06:36:59.762Z,85.57
2022-09-14T06:42:03.012Z,85.32
2022-09-14T06:47:07.106Z,85.00
2022-09-14T06:52:10.223Z,84.32
2022-09-14T06:57:13.316Z,83.24
2022-09-14T07:02:16.460Z,82.49
2022-09-14T07:07:19.832Z,82.20
2022-09-14T07:12:22.938Z,81.04
2022-09-14T07:17:25.947Z,80.85
2022-09-14T07:22:29.153Z,80.61
2022-09-14T07:27:34.270Z,80.07
2022-09-14T07:32:37.338Z,79.00
2022-09-14T07:37:40.521Z,78.15
2022-09-14T07:42:43.668Z,77.68
2022-09-14T07:47:48.685Z,77.07
2022-09-14T07:52:52.501Z,77.00
2022-09-14T07:57:56.970Z,76.15
2022-09-14T08:03:00.346Z,75.33
2022-09-14T08:08:03.677Z,75.58
2022-09-14T08:13:06.864Z,76.34
2022-09-14T08:18:09.978Z,76.36
2022-09-14T08:23:13.493Z,76.17
2022-09-14T08:28:16.601Z,74.65
2022-09-14T08:33:19.721Z,73.44
2022-09-14T08:38:23.412Z,73.05
2022-09-14T08:43:28.125Z,72.29
2022-09-14T08:48:37.703Z,71.93
2022-09-14T08:53:42.898Z,71.69
2022-09-14T08:59:25.696Z,70.57
2022-09-14T09:04:53.613Z,70.35
2022-09-14T09:09:58.576Z,69.08
2022-09-14T09:15:22.138Z,67.97
2022-09-14T09:20:51.972Z,67.80
2022-09-14T09:26:16.789Z,67.64
2022-09-14T09:31:33.448Z,67.46
2022-09-14T09:36:41.243Z,68.50
2022-09-14T09:41:51.234Z,66.89
2022-09-14T09:47:02.126Z,65.82
2022-09-14T09:52:24.400Z,65.18
2022-09-14T09:57:36.907Z,63.85
2022-09-14T10:02:41.811Z,63.30
2022-09-14T10:07:50.510Z,63.85
2022-09-14T10:12:57.041Z,61.78
2022-09-14T10:18:12.325Z,62.12
2022-09-14T10:23:18.419Z,62.80
2022-09-14T10:28:33.992Z,62.29
2022-09-14T10:33:37.112Z,63.47
2022-09-14T10:38:50.904Z,62.54
2022-09-14T10:44:24.692Z,62.81
2022-09-14T10:50:31.794Z,62.10
2022-09-14T10:56:23.971Z,61.49
2022-09-14T11:01:45.614Z,61.72
2022-09-14T11:07:12.554Z,63.44
2022-09-14T11:12:52.259Z,64.44
2022-09-14T11:18:19.799Z,65.07
2022-09-14T11:23:43.882Z,65.65
2022-09-14T11:28:59.190Z,65.90
2022-09-14T11:34:38.453Z,66.68
2022-09-14T11:40:47.025Z,65.76
2022-09-14T11:46:06.337Z,64.87
2022-09-14T11:51:23.093Z,63.43
2022-09-14T11:56:34.087Z,63.32
2022-09-14T12:01:41.594Z,63.04
2022-09-14T12:06:50.133Z,62.65
2022-09-14T12:12:00.525Z,63.13
2022-09-14T12:17:40.340Z,63.27
2022-09-14T12:22:49.924Z,63.60
2022-09-14T12:27:54.159Z,63.08
2022-09-14T12:32:57.384Z,62.56
2022-09-14T12:38:29.255Z,62.30
2022-09-14T12:43:33.689Z,62.49
2022-09-14T12:49:26.559Z,62.24
2022-09-14T12:55:27.831Z,61.67
2022-09-14T13:00:49.580Z,61.78
2022-09-14T13:05:52.677Z,60.79
2022-09-14T13:10:55.830Z,60.74
2022-09-14T13:16:07.655Z,59.70
2022-09-14T13:21:24.980Z,58.71
2022-09-14T13:26:31.847Z,57.89
2022-09-14T13:31:39.748Z,57.94
2022-09-14T13:36:44.839Z,58.19
2022-09-14T13:41:48.420Z,57.76
2022-09-14T13:46:52.347Z,57.64
2022-09-14T13:52:33.959Z,58.19
2022-09-14T13:58:16.452Z,59.31
2022-09-14T14:03:48.633Z,59.51
2022-09-14T14:09:05.777Z,59.29
2022-09-14T14:14:30.772Z,58.88
2022-09-14T14:19:34.550Z,58.12
2022-09-14T14:24:55.715Z,58.04
2022-09-14T14:30:04.446Z,58.19
2022-09-14T14:35:22.566Z,59.21
2022-09-14T14:40:28.060Z,60.10
2022-09-14T14:45:36.365Z,59.94
2022-09-14T14:50:40.301Z,59.85
2022-09-14T14:55:43.493Z,60.48
2022-09-14T15:00:48.139Z,60.37
2022-09-14T15:05:51.549Z,61.56
2022-09-14T15:10:58.288Z,61.75
2022-09-14T15:16:01.407Z,61.79
2022-09-14T15:21:05.491Z,61.96
2022-09-14T15:26:08.685Z,62.08
2022-09-14T15:31:13.513Z,62.51
2022-09-14T15:36:51.763Z,62.45
2022-09-14T15:41:56.811Z,62.75
2022-09-14T15:47:00.140Z,62.90
2022-09-14T15:52:04.155Z,63.19
2022-09-14T15:57:11.904Z,63.21
2022-09-14T16:02:17.115Z,62.77
2022-09-14T16:07:20.666Z,63.32
2022-09-14T16:12:23.856Z,63.60
2022-09-14T16:17:27.153Z,63.82
2022-09-14T16:22:30.603Z,63.94
2022-09-14T16:27:34.085Z,64.26
2022-09-14T16:32:37.393Z,64.28
2022-09-14T16:37:40.499Z,64.69
2022-09-14T16:42:44.017Z,64.85
2022-09-14T16:47:47.046Z,65.21
2022-09-14T16:52:50.126Z,65.86
2022-09-14T16:57:53.234Z,66.19
2022-09-14T17:02:56.337Z,66.51
2022-09-14T17:07:59.441Z,66.81
2022-09-14T17:13:02.565Z,66.95
2022-09-14T17:18:05.756Z,67.38
2022-09-14T17:23:08.759Z,67.52
2022-09-14T17:28:11.868Z,67.46
2022-09-14T17:33:14.974Z,67.54
2022-09-14T17:38:19.484Z,67.48
2022-09-14T17:43:22.619Z,67.69
2022-09-14T17:48:27.973Z,68.04
2022-09-14T17:53:31.185Z,68.28
2022-09-14T17:58:36.079Z,68.89
2022-09-14T18:03:41.964Z,68.69
2022-09-14T18:08:46.671Z,68.53
2022-09-14T18:13:51.175Z,68.28
2022-09-14T18:18:55.011Z,68.06
2022-09-14T18:23:58.540Z,68.25
2022-09-14T18:29:03.889Z,69.99
2022-09-14T18:34:08.522Z,70.61
2022-09-14T18:39:13.392Z,70.29
2022-09-14T18:44:16.603Z,70.06
2022-09-14T18:49:19.909Z,69.84
2022-09-14T18:54:27.457Z,69.62
2022-09-14T18:59:31.330Z,69.88
2022-09-14T19:04:34.854Z,70.11
2022-09-14T19:09:38.054Z,70.38
2022-09-14T19:14:41.260Z,70.52
2022-09-14T19:19:44.470Z,70.64
2022-09-14T19:24:47.581Z,70.92
2022-09-14T19:29:52.641Z,71.22
2022-09-14T19:34:55.936Z,71.25
2022-09-14T19:39:59.206Z,71.75
2022-09-14T19:45:03.985Z,72.17
2022-09-14T19:50:09.326Z,72.29
2022-09-14T19:55:12.505Z,72.58
2022-09-14T20:00:18.175Z,72.62
2022-09-14T20:05:21.947Z,73.05
2022-09-14T20:10:26.795Z,73.18
2022-09-14T20:15:30.566Z,73.14
2022-09-14T20:20:37.789Z,73.51
2022-09-14T20:25:40.860Z,73.78
2022-09-14T20:30:44.126Z,74.38
2022-09-14T20:35:49.204Z,74.63
2022-09-14T20:41:06.816Z,74.40
2022-09-14T20:46:15.134Z,74.84
2022-09-14T20:51:20.891Z,74.76
2022-09-14T20:56:31.160Z,74.95
2022-09-14T21:01:37.364Z,75.13
2022-09-14T21:06:52.779Z,75.81
2022-09-14T21:11:56.187Z,76.11
2022-09-14T21:16:59.606Z,76.15
2022-09-14T21:22:03.012Z,76.31
2022-09-14T21:27:07.835Z,76.28
2022-09-14T21:32:11.071Z,76.24
2022-09-14T21:37:14.484Z,76.00
2022-09-14T21:42:17.477Z,76.71
2022-09-14T21:47:20.795Z,76.97
2022-09-14T21:52:23.927Z,77.08
2022-09-14T21:57:26.979Z,77.28
2022-09-14T22:02:30.200Z,77.27
2022-09-14T22:07:33.450Z,77.21
2022-09-14T22:12:36.531Z,77.41
2022-09-14T22:17:39.562Z,77.63
2022-09-14T22:22:44.663Z,77.68
2022-09-14T22:27:47.600Z,77.85
2022-09-14T22:32:50.625Z,77.72
2022-09-14T22:37:53.629Z,77.61
2022-09-14T22:42:56.611Z,77.96
2022-09-14T22:47:59.570Z,77.85
2022-09-14T22:53:02.551Z,77.85
2022-09-14T22:58:06.737Z,77.99
2022-09-14T23:03:11.512Z,77.67
2022-09-14T23:08:14.557Z,77.58
2022-09-14T23:13:17.602Z,77.82
2022-09-14T23:18:20.591Z,78.32
2022-09-14T23:23:23.555Z,78.93
2022-09-14T23:28:26.521Z,79.11
2022-09-14T23:33:31.094Z,79.03
2022-09-14T23:38:35.546Z,78.47
2022-09-14T23:43:38.686Z,78.76
2022-09-14T23:48:41.839Z,78.71
2022-09-14T23:53:45.207Z,78.86
2022-09-14T23:58:48.613Z,78.72
